Terminal Aerodrome Forecast
Issued by NWS Sterling, VA

Current Version | Previous Version | Text Only | Print | Product List | Glossary Off
Versions: 1 2 3 4 5 6 7 8 9 10 11 12 13 14 15 16 17 18 19 20 21 22 23 24 25

000
FTUS41 KLWX 281639 AAF
TAFIAD
TAF AMD
KIAD 281639Z 2817/2918 12007KT 5SM -SHRA OVC040
     FM281900 14006KT P6SM OVC050
     FM282200 14007KT 5SM -SHRA OVC025
     FM290600 15005KT P6SM OVC005
     FM291000 18005KT P6SM BKN010
     FM291300 24005KT P6SM BKN060
     FM291500 27007KT P6SM BKN070=

USA.gov is the U.S. government's official web portal to all federal, state and local government web resources and services.